createdAt,value
2022-09-12T00:01:28.756Z,100205.31
2022-09-12T00:03:58.408Z,100209.08
2022-09-12T00:06:32.351Z,100210.83
2022-09-12T00:09:01.924Z,100215.94
2022-09-12T00:11:42.386Z,100211.77
2022-09-12T00:14:11.095Z,100214.27
2022-09-12T00:16:39.572Z,100215.22
2022-09-12T00:19:07.757Z,100213.46
2022-09-12T00:21:36.843Z,100216.11
2022-09-12T00:24:05.010Z,100217.14
2022-09-12T00:26:32.978Z,100224.71
2022-09-12T00:29:01.436Z,100223.05
2022-09-12T00:31:29.574Z,100223.45
2022-09-12T00:33:58.357Z,100226.65
2022-09-12T00:36:31.381Z,100226.42
2022-09-12T00:38:59.263Z,100227.73
2022-09-12T00:41:37.931Z,100222.78
2022-09-12T00:44:10.181Z,100224.50
2022-09-12T00:46:45.067Z,100225.93
2022-09-12T00:49:18.711Z,100227.44
2022-09-12T00:51:50.900Z,100230.80
2022-09-12T00:54:19.736Z,100231.85
2022-09-12T00:56:47.700Z,100230.14
2022-09-12T00:59:20.583Z,100232.42
2022-09-12T01:01:49.702Z,100230.98
2022-09-12T01:04:18.315Z,100232.00
2022-09-12T01:06:46.572Z,100235.20
2022-09-12T01:09:20.051Z,100238.90
2022-09-12T01:11:48.652Z,100236.34
2022-09-12T01:14:18.822Z,100237.91
2022-09-12T01:16:47.067Z,100235.66
2022-09-12T01:19:32.093Z,100231.70
2022-09-12T01:22:09.606Z,100234.16
2022-09-12T01:24:42.471Z,100230.83
2022-09-12T01:27:19.470Z,100228.00
2022-09-12T01:30:08.348Z,100233.02
2022-09-12T01:32:39.290Z,100233.88
2022-09-12T01:35:21.446Z,100235.11
2022-09-12T01:37:53.787Z,100236.11
2022-09-12T01:40:24.010Z,100229.34
2022-09-12T01:43:32.226Z,100230.03
2022-09-12T01:46:20.257Z,100233.19
2022-09-12T01:48:51.269Z,100232.23
2022-09-12T01:51:22.021Z,100233.27
2022-09-12T01:53:52.446Z,100232.95
2022-09-12T01:56:26.450Z,100231.19
2022-09-12T01:59:09.174Z,100231.62
2022-09-12T02:01:53.525Z,100233.30
2022-09-12T02:04:22.676Z,100233.73
2022-09-12T02:07:10.450Z,100227.95
2022-09-12T02:09:40.354Z,100232.26
2022-09-12T02:12:09.078Z,100233.09
2022-09-12T02:14:38.272Z,100230.48
2022-09-12T02:17:17.260Z,100233.45
2022-09-12T02:19:58.845Z,100234.34
2022-09-12T02:22:27.321Z,100229.70
2022-09-12T02:24:59.194Z,100226.48
2022-09-12T02:27:33.358Z,100225.81
2022-09-12T02:30:01.294Z,100226.10
2022-09-12T02:32:35.075Z,100224.70
2022-09-12T02:35:09.111Z,100225.98
2022-09-12T02:37:38.868Z,100225.16
2022-09-12T02:40:09.005Z,100225.09
2022-09-12T02:42:37.405Z,100222.19
2022-09-12T02:45:05.403Z,100220.23
2022-09-12T02:47:48.239Z,100220.20
2022-09-12T02:50:16.254Z,100218.89
2022-09-12T02:52:44.154Z,100218.30
2022-09-12T02:55:14.394Z,100225.80
2022-09-12T02:57:44.587Z,100223.80
2022-09-12T03:00:13.050Z,100223.10
2022-09-12T03:02:50.739Z,100223.63
2022-09-12T03:05:27.927Z,100226.51
2022-09-12T03:08:28.855Z,100224.75
2022-09-12T03:10:59.808Z,100228.16
2022-09-12T03:13:36.920Z,100222.30
2022-09-12T03:16:18.321Z,100227.65
2022-09-12T03:18:50.551Z,100225.35
2022-09-12T03:21:21.690Z,100223.99
2022-09-12T03:23:52.696Z,100230.02
2022-09-12T03:26:23.167Z,100225.66
2022-09-12T03:28:51.062Z,100227.68
2022-09-12T03:31:19.181Z,100228.45
2022-09-12T03:33:48.660Z,100229.72
2022-09-12T03:36:17.533Z,100224.60
2022-09-12T03:38:45.489Z,100226.85
2022-09-12T03:41:13.614Z,100227.51
2022-09-12T03:43:41.744Z,100228.09
2022-09-12T03:46:09.928Z,100229.85
2022-09-12T03:48:41.316Z,100228.94
2022-09-12T03:51:10.019Z,100227.80
2022-09-12T03:53:38.096Z,100227.23
2022-09-12T03:56:09.325Z,100224.39
2022-09-12T03:58:37.381Z,100227.05
2022-09-12T04:01:12.584Z,100230.27
2022-09-12T04:03:44.209Z,100231.11
2022-09-12T04:06:15.546Z,100231.94
2022-09-12T04:08:46.840Z,100235.20
2022-09-12T04:11:15.588Z,100233.98
2022-09-12T04:13:46.240Z,100238.14
2022-09-12T04:16:17.698Z,100241.88
2022-09-12T04:18:46.627Z,100239.19
2022-09-12T04:21:16.554Z,100242.60
2022-09-12T04:23:44.499Z,100244.27
2022-09-12T04:26:14.672Z,100244.27
2022-09-12T04:28:42.803Z,100242.63
2022-09-12T04:31:18.183Z,100243.15
2022-09-12T04:33:47.340Z,100243.40
2022-09-12T04:36:17.759Z,100244.80
2022-09-12T04:38:47.913Z,100246.13
2022-09-12T04:41:18.519Z,100253.27
2022-09-12T04:43:46.789Z,100248.67
2022-09-12T04:46:16.748Z,100249.02
2022-09-12T04:48:44.978Z,100252.60
2022-09-12T04:51:14.895Z,100253.59
2022-09-12T04:53:43.288Z,100248.17
2022-09-12T04:56:11.523Z,100243.94
2022-09-12T04:58:39.622Z,100250.85
2022-09-12T05:01:08.310Z,100251.95
2022-09-12T05:03:40.669Z,100251.21
2022-09-12T05:06:17.623Z,100251.40
2022-09-12T05:08:45.708Z,100254.90
2022-09-12T05:11:15.452Z,100252.88
2022-09-12T05:13:43.409Z,100262.29
2022-09-12T05:16:13.010Z,100259.67
2022-09-12T05:18:41.181Z,100260.62
2022-09-12T05:21:09.593Z,100264.01
2022-09-12T05:23:39.733Z,100272.22
2022-09-12T05:26:12.286Z,100269.35
2022-09-12T05:28:40.140Z,100271.21
2022-09-12T05:31:16.754Z,100275.58
2022-09-12T05:33:45.913Z,100277.86
2022-09-12T05:36:15.402Z,100276.74
2022-09-12T05:38:43.437Z,100281.14
2022-09-12T05:41:17.483Z,100283.71
2022-09-12T05:43:47.793Z,100285.82
2022-09-12T05:46:18.987Z,100286.88
2022-09-12T05:48:47.861Z,100284.77
2022-09-12T05:51:20.564Z,100290.81
2022-09-12T05:53:51.621Z,100292.76
2022-09-12T05:56:21.161Z,100290.48
2022-09-12T05:58:52.812Z,100289.02
2022-09-12T06:01:21.557Z,100295.21
2022-09-12T06:03:50.974Z,100291.41
2022-09-12T06:06:19.763Z,100291.92
2022-09-12T06:08:49.506Z,100291.58
2022-09-12T06:11:20.551Z,100294.48
2022-09-12T06:13:52.610Z,100301.08
2022-09-12T06:16:28.396Z,100303.23
2022-09-12T06:19:01.037Z,100303.59
2022-09-12T06:21:30.823Z,100300.77
2022-09-12T06:23:59.224Z,100305.41
2022-09-12T06:26:27.989Z,100303.70
2022-09-12T06:28:56.312Z,100302.85
2022-09-12T06:31:26.148Z,100305.20
2022-09-12T06:33:59.842Z,100307.45
2022-09-12T06:36:29.918Z,100306.48
2022-09-12T06:39:03.970Z,100302.06
2022-09-12T06:41:32.349Z,100299.51
2022-09-12T06:44:00.738Z,100297.67
2022-09-12T06:46:28.898Z,100301.83
2022-09-12T06:48:57.219Z,100305.81
2022-09-12T06:51:29.253Z,100304.25
2022-09-12T06:53:57.218Z,100305.45
2022-09-12T06:56:28.843Z,100305.10
2022-09-12T06:58:57.687Z,100299.70
2022-09-12T07:01:27.451Z,100297.59
2022-09-12T07:03:56.587Z,100299.36
2022-09-12T07:06:30.113Z,100307.23
2022-09-12T07:08:59.892Z,100303.95
2022-09-12T07:11:31.852Z,100307.75
2022-09-12T07:14:01.055Z,100308.14
2022-09-12T07:16:30.386Z,100305.86
2022-09-12T07:18:59.472Z,100309.45
2022-09-12T07:21:30.027Z,100310.98
2022-09-12T07:23:58.217Z,100310.98
2022-09-12T07:26:29.239Z,100311.23
2022-09-12T07:29:19.072Z,100313.64
2022-09-12T07:31:50.429Z,100318.77
2022-09-12T07:34:18.456Z,100321.26
2022-09-12T07:36:46.386Z,100324.81
2022-09-12T07:39:16.527Z,100327.91
2022-09-12T07:41:44.577Z,100326.44
2022-09-12T07:44:16.100Z,100330.70
2022-09-12T07:46:44.011Z,100334.84
2022-09-12T07:49:12.186Z,100333.89
2022-09-12T07:51:40.903Z,100335.06
2022-09-12T07:54:09.348Z,100334.46
2022-09-12T07:56:39.591Z,100333.47
2022-09-12T07:59:08.867Z,100337.20
2022-09-12T08:01:39.494Z,100335.05
2022-09-12T08:04:07.700Z,100336.66
2022-09-12T08:06:36.498Z,100342.07
2022-09-12T08:09:08.718Z,100342.08
2022-09-12T08:11:36.652Z,100342.61
2022-09-12T08:14:05.906Z,100347.39
2022-09-12T08:16:34.768Z,100345.41
2022-09-12T08:19:04.754Z,100344.69
2022-09-12T08:21:34.780Z,100348.16
2022-09-12T08:24:04.045Z,100343.17
2022-09-12T08:26:33.969Z,100339.04
2022-09-12T08:29:04.577Z,100342.80
2022-09-12T08:31:36.605Z,100340.05
2022-09-12T08:34:08.362Z,100333.95
2022-09-12T08:36:36.395Z,100335.85
2022-09-12T08:39:06.063Z,100337.20
2022-09-12T08:41:37.772Z,100330.70
2022-09-12T08:44:09.362Z,100331.77
2022-09-12T08:46:46.074Z,100332.77
2022-09-12T08:49:15.136Z,100336.06
2022-09-12T08:51:43.063Z,100332.61
2022-09-12T08:54:18.101Z,100336.90
2022-09-12T08:56:48.003Z,100333.42
2022-09-12T08:59:16.796Z,100332.89
2022-09-12T09:01:45.632Z,100336.29
2022-09-12T09:04:25.768Z,100339.90
2022-09-12T09:07:04.762Z,100330.31
2022-09-12T09:09:44.815Z,100337.55
2022-09-12T09:12:25.082Z,100334.70
2022-09-12T09:14:58.254Z,100340.41
2022-09-12T09:17:28.104Z,100342.95
2022-09-12T09:20:13.608Z,100339.37
2022-09-12T09:22:43.887Z,100336.02
2022-09-12T09:25:23.033Z,100332.92
2022-09-12T09:28:15.537Z,100335.27
2022-09-12T09:30:46.401Z,100341.47
2022-09-12T09:33:22.719Z,100333.08
2022-09-12T09:36:00.607Z,100334.41
2022-09-12T09:38:37.872Z,100333.64
2022-09-12T09:41:12.108Z,100325.96
2022-09-12T09:43:40.129Z,100323.29
2022-09-12T09:46:08.124Z,100322.04
2022-09-12T09:48:36.635Z,100322.19
2022-09-12T09:51:08.152Z,100316.42
2022-09-12T09:53:39.075Z,100318.33
2022-09-12T09:56:28.121Z,100313.55
2022-09-12T09:58:56.269Z,100316.30
2022-09-12T10:01:25.214Z,100315.70
2022-09-12T10:03:55.483Z,100315.82
2022-09-12T10:06:25.521Z,100318.69
2022-09-12T10:09:05.280Z,100305.39
2022-09-12T10:11:33.866Z,100305.14
2022-09-12T10:14:03.167Z,100305.14
2022-09-12T10:16:48.293Z,100305.42
2022-09-12T10:19:43.293Z,100302.27
2022-09-12T10:22:15.556Z,100303.23
2022-09-12T10:24:47.072Z,100300.09
2022-09-12T10:27:24.404Z,100300.95
2022-09-12T10:30:15.642Z,100301.20
2022-09-12T10:32:45.455Z,100304.84
2022-09-12T10:35:21.317Z,100304.43
2022-09-12T10:37:58.882Z,100306.60
2022-09-12T10:40:32.908Z,100304.35
2022-09-12T10:43:02.971Z,100301.06
2022-09-12T10:45:32.331Z,100301.11
2022-09-12T10:48:07.648Z,100302.64
2022-09-12T10:50:42.042Z,100303.15
2022-09-12T10:53:13.414Z,100300.27
2022-09-12T10:55:42.077Z,100292.45
2022-09-12T10:58:43.308Z,100290.40
2022-09-12T11:01:17.877Z,100287.95
2022-09-12T11:03:50.483Z,100291.48
2022-09-12T11:06:22.067Z,100289.49
2022-09-12T11:09:00.851Z,100291.44
2022-09-12T11:11:49.263Z,100290.60
2022-09-12T11:14:17.530Z,100297.77
2022-09-12T11:16:49.343Z,100289.92
2022-09-12T11:19:35.670Z,100291.70
2022-09-12T11:22:05.779Z,100292.46
2022-09-12T11:24:37.335Z,100294.98
2022-09-12T11:27:14.844Z,100292.70
2022-09-12T11:29:48.711Z,100286.63
2022-09-12T11:32:36.489Z,100288.14
2022-09-12T11:35:15.134Z,100288.08
2022-09-12T11:38:00.771Z,100288.34
2022-09-12T11:40:45.130Z,100289.46
2022-09-12T11:43:22.279Z,100288.86
2022-09-12T11:45:50.677Z,100285.93
2022-09-12T11:48:26.759Z,100281.24
2022-09-12T11:50:54.787Z,100279.43
2022-09-12T11:53:26.320Z,100287.15
2022-09-12T11:56:03.029Z,100285.68
2022-09-12T11:58:30.986Z,100284.49
2022-09-12T12:01:11.648Z,100290.80
2022-09-12T12:03:43.970Z,100290.02
2022-09-12T12:06:23.827Z,100286.77
2022-09-12T12:08:54.022Z,100286.45
2022-09-12T12:11:42.867Z,100287.00
2022-09-12T12:14:24.181Z,100285.39
2022-09-12T12:16:52.518Z,100280.43
2022-09-12T12:19:25.199Z,100278.78
2022-09-12T12:21:53.351Z,100283.36
2022-09-12T12:24:25.892Z,100287.48
2022-09-12T12:26:58.813Z,100279.67
2022-09-12T12:29:27.239Z,100282.49
2022-09-12T12:32:05.091Z,100281.66
2022-09-12T12:34:36.491Z,100282.59
2022-09-12T12:37:21.005Z,100284.93
2022-09-12T12:39:55.868Z,100285.22
2022-09-12T12:42:32.642Z,100282.75
2022-09-12T12:45:11.808Z,100281.00
2022-09-12T12:47:39.854Z,100276.98
2022-09-12T12:50:20.796Z,100277.93
2022-09-12T12:52:54.274Z,100275.70
2022-09-12T12:55:31.369Z,100274.65
2022-09-12T12:57:59.608Z,100275.83
2022-09-12T13:00:39.706Z,100277.21
2022-09-12T13:03:08.305Z,100276.17
2022-09-12T13:05:47.989Z,100284.32
2022-09-12T13:08:18.787Z,100278.56
2022-09-12T13:10:53.698Z,100277.12
2022-09-12T13:13:26.971Z,100277.61
2022-09-12T13:15:56.461Z,100278.48
2022-09-12T13:18:34.610Z,100265.85
2022-09-12T13:21:02.600Z,100264.63
2022-09-12T13:23:31.455Z,100265.80
2022-09-12T13:26:01.550Z,100260.22
2022-09-12T13:28:30.169Z,100261.54
2022-09-12T13:31:12.577Z,100259.32
2022-09-12T13:33:41.989Z,100256.96
2022-09-12T13:36:10.352Z,100254.91
2022-09-12T13:38:50.758Z,100254.36
2022-09-12T13:41:37.315Z,100250.49
2022-09-12T13:44:07.803Z,100248.84
2022-09-12T13:46:38.915Z,100248.84
2022-09-12T13:49:26.403Z,100241.06
2022-09-12T13:51:58.616Z,100244.04
2022-09-12T13:54:27.359Z,100242.91
2022-09-12T13:56:58.619Z,100236.67
2022-09-12T13:59:26.437Z,100235.50
2022-09-12T14:01:54.306Z,100238.41
2022-09-12T14:04:43.292Z,100231.96
2022-09-12T14:07:20.393Z,100233.79
2022-09-12T14:09:55.408Z,100234.58
2022-09-12T14:12:34.942Z,100237.77
2022-09-12T14:15:04.261Z,100235.42
2022-09-12T14:17:33.556Z,100234.35
2022-09-12T14:20:04.239Z,100235.53
2022-09-12T14:22:33.098Z,100230.68
2022-09-12T14:25:01.016Z,100229.89
2022-09-12T14:27:30.446Z,100236.51
2022-09-12T14:30:02.423Z,100232.41
2022-09-12T14:32:31.199Z,100229.59
2022-09-12T14:35:06.273Z,100230.82
2022-09-12T14:37:34.728Z,100226.84
2022-09-12T14:40:02.786Z,100224.58
2022-09-12T14:42:31.289Z,100226.86
2022-09-12T14:45:03.786Z,100232.08
2022-09-12T14:47:35.187Z,100232.50
2022-09-12T14:50:03.339Z,100232.71
2022-09-12T14:52:35.388Z,100230.80
2022-09-12T14:55:16.204Z,100230.97
2022-09-12T14:57:46.777Z,100230.98
2022-09-12T15:00:15.208Z,100234.43
2022-09-12T15:02:43.504Z,100231.09
2022-09-12T15:05:11.722Z,100224.04
2022-09-12T15:07:46.507Z,100217.09
2022-09-12T15:10:14.911Z,100218.83
2022-09-12T15:12:45.934Z,100220.03
2022-09-12T15:15:15.059Z,100222.08
2022-09-12T15:17:43.639Z,100220.77
2022-09-12T15:20:13.926Z,100219.21
2022-09-12T15:22:42.109Z,100214.74
2022-09-12T15:25:10.578Z,100216.54
2022-09-12T15:27:43.311Z,100215.36
2022-09-12T15:30:13.381Z,100217.48
2022-09-12T15:32:42.582Z,100220.24
2022-09-12T15:35:15.850Z,100216.65
2022-09-12T15:37:46.182Z,100218.34
2022-09-12T15:40:15.101Z,100220.90
2022-09-12T15:42:44.319Z,100217.35
2022-09-12T15:45:18.068Z,100222.34
2022-09-12T15:47:48.494Z,100221.59
2022-09-12T15:50:16.580Z,100218.95
2022-09-12T15:52:44.696Z,100219.33
2022-09-12T15:55:20.483Z,100222.52
2022-09-12T15:57:48.756Z,100222.06
2022-09-12T16:00:17.718Z,100221.01
2022-09-12T16:02:46.763Z,100219.54
2022-09-12T16:05:21.527Z,100222.42
2022-09-12T16:07:51.000Z,100219.24
2022-09-12T16:10:20.096Z,100214.31
2022-09-12T16:12:48.391Z,100216.70
2022-09-12T16:15:20.323Z,100215.92
2022-09-12T16:17:49.251Z,100209.63
2022-09-12T16:20:19.057Z,100209.75
2022-09-12T16:22:47.252Z,100207.10
2022-09-12T16:25:17.589Z,100203.65
2022-09-12T16:27:49.318Z,100203.24
2022-09-12T16:30:17.655Z,100200.59
2022-09-12T16:32:46.487Z,100202.80
2022-09-12T16:35:15.462Z,100199.17
2022-09-12T16:37:43.482Z,100198.55
2022-09-12T16:40:15.388Z,100196.66
2022-09-12T16:42:44.387Z,100193.03
2022-09-12T16:45:12.519Z,100190.59
2022-09-12T16:47:40.474Z,100193.06
2022-09-12T16:50:08.526Z,100188.16
2022-09-12T16:52:36.612Z,100187.88
2022-09-12T16:55:04.749Z,100184.31
2022-09-12T16:57:33.290Z,100184.70
2022-09-12T17:00:01.302Z,100180.94
2022-09-12T17:02:33.480Z,100179.05
2022-09-12T17:05:02.054Z,100178.85
2022-09-12T17:07:30.145Z,100177.30
2022-09-12T17:10:01.202Z,100175.97
2022-09-12T17:12:31.426Z,100171.83
2022-09-12T17:15:04.278Z,100175.69
2022-09-12T17:17:32.143Z,100177.15
2022-09-12T17:20:01.253Z,100174.80
2022-09-12T17:22:29.616Z,100176.08
2022-09-12T17:24:57.749Z,100179.38
2022-09-12T17:27:25.694Z,100188.08
2022-09-12T17:29:55.805Z,100188.23
2022-09-12T17:32:24.347Z,100190.81
2022-09-12T17:34:54.350Z,100195.88
2022-09-12T17:37:22.200Z,100196.18
2022-09-12T17:39:51.439Z,100197.23
2022-09-12T17:42:20.854Z,100200.51
2022-09-12T17:44:53.122Z,100199.05
2022-09-12T17:47:21.260Z,100201.03
2022-09-12T17:49:51.071Z,100202.58
2022-09-12T17:52:19.086Z,100205.14
2022-09-12T17:54:47.089Z,100202.32
2022-09-12T17:57:15.777Z,100204.59
2022-09-12T17:59:45.744Z,100205.56
2022-09-12T18:02:16.771Z,100212.23
2022-09-12T18:04:48.880Z,100213.92
2022-09-12T18:07:19.297Z,100216.33
2022-09-12T18:09:50.647Z,100214.85
2022-09-12T18:12:21.950Z,100214.56
2022-09-12T18:14:54.098Z,100217.23
2022-09-12T18:17:31.213Z,100216.41
2022-09-12T18:19:59.294Z,100212.45
2022-09-12T18:22:28.781Z,100215.50
2022-09-12T18:24:57.527Z,100211.80
2022-09-12T18:27:27.476Z,100212.57
2022-09-12T18:30:19.634Z,100210.23
2022-09-12T18:32:44.794Z,100209.36
2022-09-12T18:35:49.798Z,100210.49
2022-09-12T18:38:21.098Z,100212.67
2022-09-12T18:41:01.092Z,100211.67
2022-09-12T18:43:38.681Z,100214.02
2022-09-12T18:46:10.046Z,100207.18
2022-09-12T18:48:41.016Z,100203.48
2022-09-12T18:51:19.539Z,100210.15
2022-09-12T18:53:53.759Z,100204.84
2022-09-12T18:56:23.517Z,100202.13
2022-09-12T18:58:59.545Z,100207.06
2022-09-12T19:01:29.778Z,100204.62
2022-09-12T19:03:58.183Z,100203.20
2022-09-12T19:06:36.961Z,100200.83
2022-09-12T19:09:08.195Z,100200.26
2022-09-12T19:11:49.130Z,100197.02
2022-09-12T19:14:42.855Z,100201.27
2022-09-12T19:17:15.766Z,100200.71
2022-09-12T19:19:49.518Z,100198.59
2022-09-12T19:22:28.314Z,100192.75
2022-09-12T19:25:03.177Z,100192.54
2022-09-12T19:27:31.443Z,100191.91
2022-09-12T19:30:03.996Z,100191.36
2022-09-12T19:32:35.810Z,100189.27
2022-09-12T19:35:05.800Z,100192.33
2022-09-12T19:37:37.728Z,100190.98
2022-09-12T19:40:11.214Z,100186.09
2022-09-12T19:42:39.533Z,100188.34
2022-09-12T19:45:11.241Z,100183.01
2022-09-12T19:47:40.027Z,100181.78
2022-09-12T19:50:12.631Z,100176.95
2022-09-12T19:52:44.293Z,100177.43
2022-09-12T19:55:27.460Z,100177.87
2022-09-12T19:57:55.607Z,100177.67
2022-09-12T20:00:31.664Z,100174.34
2022-09-12T20:03:04.024Z,100170.16
2022-09-12T20:05:32.601Z,100171.91
2022-09-12T20:08:03.988Z,100173.12
2022-09-12T20:10:32.245Z,100171.35
2022-09-12T20:13:05.541Z,100170.94
2022-09-12T20:15:36.015Z,100168.50
2022-09-12T20:18:04.119Z,100164.34
2022-09-12T20:20:37.657Z,100164.07
2022-09-12T20:23:07.472Z,100166.29
2022-09-12T20:25:37.780Z,100164.44
2022-09-12T20:28:08.365Z,100168.55
2022-09-12T20:30:36.744Z,100166.98
2022-09-12T20:33:04.958Z,100164.44
2022-09-12T20:35:34.165Z,100162.98
2022-09-12T20:38:02.054Z,100165.12
2022-09-12T20:40:36.014Z,100162.08
2022-09-12T20:43:04.404Z,100161.48
2022-09-12T20:45:40.339Z,100161.92
2022-09-12T20:48:25.552Z,100163.20
2022-09-12T20:54:25.596Z,100164.38
2022-09-12T21:01:20.895Z,100156.70
2022-09-12T21:03:50.186Z,100162.45
2022-09-12T21:06:18.603Z,100159.77
2022-09-12T21:08:46.924Z,100163.55
2022-09-12T21:11:19.116Z,100162.20
2022-09-12T21:13:47.770Z,100163.45
2022-09-12T21:16:21.447Z,100161.46
2022-09-12T21:19:28.190Z,100158.29
2022-09-12T21:22:00.529Z,100159.36
2022-09-12T21:27:56.340Z,100161.30
2022-09-12T21:30:24.379Z,100161.35
2022-09-12T21:32:52.529Z,100159.70
2022-09-12T21:35:21.501Z,100158.35
2022-09-12T21:37:51.271Z,100156.83
2022-09-12T21:40:19.459Z,100159.79
2022-09-12T21:42:51.426Z,100156.28
2022-09-12T21:45:19.434Z,100151.95
2022-09-12T21:47:47.296Z,100152.49
2022-09-12T21:50:15.250Z,100150.92
2022-09-12T21:52:43.213Z,100144.78
2022-09-12T21:55:12.138Z,100149.80
2022-09-12T21:57:43.105Z,100149.75
2022-09-12T22:00:18.319Z,100149.39
2022-09-12T22:02:48.765Z,100147.73
2022-09-12T22:05:20.081Z,100145.19
2022-09-12T22:07:48.574Z,100142.83
2022-09-12T22:10:16.741Z,100139.60
2022-09-12T22:13:09.580Z,100139.86
2022-09-12T22:15:40.861Z,100138.23
2022-09-12T22:18:09.208Z,100139.43
2022-09-12T22:20:40.041Z,100137.05
2022-09-12T22:23:27.133Z,100137.23
2022-09-12T22:30:23.703Z,100136.23
2022-09-12T22:32:53.105Z,100134.42
2022-09-12T22:35:21.064Z,100135.20
2022-09-12T22:37:49.962Z,100136.16
2022-09-12T22:40:17.975Z,100132.33
2022-09-12T22:42:46.078Z,100136.46
2022-09-12T22:45:14.308Z,100129.38
2022-09-12T22:47:42.211Z,100126.80
2022-09-12T22:50:09.991Z,100121.00
2022-09-12T22:52:37.771Z,100121.51
2022-09-12T22:55:06.785Z,100120.41
2022-09-12T22:57:34.788Z,100118.84
2022-09-12T23:00:03.879Z,100109.30
2022-09-12T23:02:31.776Z,100106.70
2022-09-12T23:04:59.814Z,100110.66
2022-09-12T23:07:27.608Z,100105.34
2022-09-12T23:09:57.173Z,100101.05
2022-09-12T23:12:28.190Z,100096.90
2022-09-12T23:14:55.894Z,100094.98
2022-09-12T23:17:24.059Z,100095.02
2022-09-12T23:19:52.874Z,100095.34
2022-09-12T23:22:21.110Z,100094.17
2022-09-12T23:24:48.871Z,100092.92
2022-09-12T23:27:16.830Z,100092.08
2022-09-12T23:29:45.794Z,100090.02
2022-09-12T23:32:13.588Z,100089.90
2022-09-12T23:34:41.303Z,100087.02
2022-09-12T23:37:09.104Z,100080.23
2022-09-12T23:39:36.878Z,100077.14
2022-09-12T23:42:05.730Z,100074.05
2022-09-12T23:44:33.687Z,100072.66
2022-09-12T23:47:04.051Z,100072.65
2022-09-12T23:49:31.878Z,100073.27
2022-09-12T23:51:59.605Z,100069.04
2022-09-12T23:54:27.405Z,100070.88
2022-09-12T23:56:55.639Z,100070.21
2022-09-12T23:59:26.086Z,100068.92
